DFLBH EDFM-EDRY
Flight info
| Callsign | DFLBH |
|---|---|
| Flight time | 0h -4m |
| Altitude | |
| Route | |
| Aircraft | TBM8 |
Departure
| Time | 2026-05-08 18:42 |
|---|---|
| Airport | Mannheim-City Airport (EDFM) |
Arrival
| Time | 2026-05-08 18:38 |
|---|---|
| Airport | Speyer Airfield (EDRY) |
| Time | Latitude | Longitude | Altitude | Speed | Heading |
|---|---|---|---|---|---|
| 2026-05-08 18:37 | 49.47561 | 8.52057 | 311 ft | 0 kts | 182° |
| 2026-05-08 18:38 | 49.47541 | 8.52106 | 311 ft | 12 kts | 98° |
| 2026-05-08 18:39 | 49.47513 | 8.52166 | 311 ft | 6 kts | 177° |
| 2026-05-08 18:39 | 49.47453 | 8.52165 | 311 ft | 12 kts | 182° |
| 2026-05-08 18:39 | 49.47375 | 8.52158 | 312 ft | 9 kts | 184° |
| 2026-05-08 18:39 | 49.47288 | 8.52152 | 311 ft | 17 kts | 183° |
| 2026-05-08 18:40 | 49.47201 | 8.52072 | 311 ft | 15 kts | 257° |
| 2026-05-08 18:40 | 49.47204 | 8.51856 | 311 ft | 24 kts | 272° |
| 2026-05-08 18:40 | 49.47213 | 8.51577 | 311 ft | 32 kts | 273° |
| 2026-05-08 18:40 | 49.47224 | 8.51302 | 311 ft | 20 kts | 273° |
| 2026-05-08 18:41 | 49.47231 | 8.51089 | 311 ft | 25 kts | 272° |
| 2026-05-08 18:41 | 49.47242 | 8.50786 | 311 ft | 23 kts | 276° |
| 2026-05-08 18:41 | 49.47293 | 8.50715 | 312 ft | 10 kts | 70° |
| 2026-05-08 18:41 | 49.47286 | 8.51048 | 312 ft | 61 kts | 94° |
| 2026-05-08 18:42 | 49.47266 | 8.51934 | 473 ft | 97 kts | 85° |
| 2026-05-08 18:42 | 49.47124 | 8.53069 | 796 ft | 124 kts | 117° |
| 2026-05-08 18:42 | 49.46304 | 8.53549 | 1263 ft | 142 kts | 187° |
| 2026-05-08 18:42 | 49.45304 | 8.53238 | 1781 ft | 150 kts | 186° |
| 2026-05-08 18:43 | 49.44208 | 8.53061 | 2008 ft | 177 kts | 184° |
| 2026-05-08 18:43 | 49.42892 | 8.52816 | 2015 ft | 202 kts | 186° |
| 2026-05-08 18:43 | 49.41457 | 8.52539 | 2159 ft | 208 kts | 186° |
| 2026-05-08 18:43 | 49.40067 | 8.52288 | 2672 ft | 196 kts | 184° |
| 2026-05-08 18:44 | 49.38729 | 8.52058 | 3172 ft | 190 kts | 184° |
| 2026-05-08 18:44 | 49.37425 | 8.51816 | 3668 ft | 187 kts | 185° |
| 2026-05-08 18:44 | 49.36142 | 8.51576 | 4161 ft | 185 kts | 185° |
| 2026-05-08 18:44 | 49.34856 | 8.51342 | 4496 ft | 193 kts | 185° |
| 2026-05-08 18:45 | 49.33439 | 8.51076 | 4362 ft | 218 kts | 185° |
| 2026-05-08 18:45 | 49.32391 | 8.50873 | 3889 ft | 239 kts | 186° |
| 2026-05-08 18:45 | 49.30688 | 8.50539 | 3166 ft | 253 kts | 186° |
| 2026-05-08 18:45 | 49.28988 | 8.50195 | 2425 ft | 240 kts | 186° |
| 2026-05-08 18:46 | 49.27359 | 8.49900 | 1842 ft | 228 kts | 185° |
| 2026-05-08 18:46 | 49.25875 | 8.49658 | 1708 ft | 192 kts | 186° |
| 2026-05-08 18:46 | 49.24839 | 8.48988 | 1534 ft | 146 kts | 229° |
| 2026-05-08 18:46 | 49.24617 | 8.47686 | 1365 ft | 121 kts | 290° |
| 2026-05-08 18:47 | 49.25165 | 8.46898 | 1178 ft | 108 kts | 352° |
| 2026-05-08 18:47 | 49.25897 | 8.46896 | 1042 ft | 108 kts | 353° |
| 2026-05-08 18:47 | 49.26701 | 8.46604 | 908 ft | 123 kts | 350° |
| 2026-05-08 18:47 | 49.27543 | 8.46331 | 747 ft | 124 kts | 349° |
| 2026-05-08 18:48 | 49.28354 | 8.46031 | 583 ft | 112 kts | 349° |
| 2026-05-08 18:48 | 49.28995 | 8.45769 | 453 ft | 82 kts | 346° |
| 2026-05-08 18:48 | 49.29548 | 8.45544 | 354 ft | 84 kts | 347° |
| 2026-05-08 18:48 | 49.30021 | 8.45354 | 321 ft | 46 kts | 345° |
| 2026-05-08 18:49 | 49.30230 | 8.45272 | 320 ft | 28 kts | 344° |
| 2026-05-08 18:49 | 49.30385 | 8.45211 | 320 ft | 26 kts | 348° |
| 2026-05-08 18:49 | 49.30468 | 8.45289 | 322 ft | 8 kts | 115° |
| 2026-05-08 18:49 | 49.30372 | 8.45348 | 322 ft | 25 kts | 163° |
| 2026-05-08 18:50 | 49.30159 | 8.45432 | 321 ft | 34 kts | 167° |
| 2026-05-08 18:50 | 49.29963 | 8.45509 | 320 ft | 24 kts | 166° |
| 2026-05-08 18:50 | 49.29838 | 8.45559 | 323 ft | 16 kts | 165° |
| 2026-05-08 18:50 | 49.29741 | 8.45599 | 322 ft | 12 kts | 166° |
| 2026-05-08 18:51 | 49.29691 | 8.45621 | 322 ft | 4 kts | 166° |
| 2026-05-08 18:51 | 49.29681 | 8.45624 | 322 ft | 1 kts | 167° |
| 2026-05-08 18:51 | 49.29675 | 8.45626 | 322 ft | 0 kts | 169° |
| 2026-05-08 18:51 | 49.29664 | 8.45629 | 322 ft | 1 kts | 171° |
| 2026-05-08 18:52 | 49.29660 | 8.45630 | 322 ft | 0 kts | 166° |